Аэропорт: Аулие-Ата. Тараз

ICAO: UADD

METAR:
2021-07-28 12:30:00
UADD 281230Z 03006MPS 9999 NSC 33/05 Q1003 R31/0///65 NOSIG RMK QFE695/0927
METAR:
2021-07-28 11:00:00
TAF UADD 281100Z 2812/2821 04005G10MPS 9999 NSC